createdAt,value
2019-05-26T00:00:09.235Z,74.05
2019-05-26T00:01:09.199Z,73.91
2019-05-26T00:02:09.187Z,74.05
2019-05-26T00:03:09.176Z,74.35
2019-05-26T00:04:09.165Z,74.45
2019-05-26T00:05:09.179Z,74.76
2019-05-26T00:06:09.144Z,74.45
2019-05-26T00:07:09.132Z,74.86
2019-05-26T00:08:09.121Z,74.55
2019-05-26T00:09:09.153Z,75.16
2019-05-26T00:10:09.313Z,74.45
2019-05-26T00:11:09.097Z,74.86
2019-05-26T00:12:09.086Z,74.86
2019-05-26T00:13:09.065Z,75.48
2019-05-26T00:14:09.060Z,75.07
2019-05-26T00:15:09.109Z,74.66
2019-05-26T00:16:09.039Z,74.76
2019-05-26T00:17:09.024Z,74.96
2019-05-26T00:18:09.012Z,75.16
2019-05-26T00:19:09.010Z,75.57
2019-05-26T00:20:09.014Z,75.48
2019-05-26T00:21:08.984Z,75.48
2019-05-26T00:22:08.966Z,75.20
2019-05-26T00:23:08.956Z,75.68
2019-05-26T00:24:08.954Z,75.41
2019-05-26T00:25:08.958Z,75.41
2019-05-26T00:26:08.923Z,75.82
2019-05-26T00:27:08.912Z,75.92
2019-05-26T00:28:08.898Z,75.51
2019-05-26T00:29:08.888Z,76.32
2019-05-26T00:30:08.904Z,76.63
2019-05-26T00:31:08.869Z,76.43
2019-05-26T00:32:08.876Z,76.32
2019-05-26T00:33:08.854Z,76.53
2019-05-26T00:34:08.834Z,76.63
2019-05-26T00:35:08.856Z,76.63
2019-05-26T00:36:08.811Z,76.63
2019-05-26T00:37:08.799Z,76.73
2019-05-26T00:38:08.790Z,76.63
2019-05-26T00:39:08.778Z,76.12
2019-05-26T00:40:08.794Z,76.53
2019-05-26T00:41:08.758Z,76.53
2019-05-26T00:42:08.757Z,76.02
2019-05-26T00:43:08.736Z,76.32
2019-05-26T00:44:08.724Z,76.32
2019-05-26T00:45:08.736Z,76.22
2019-05-26T00:46:08.701Z,76.46
2019-05-26T00:47:08.689Z,76.22
2019-05-26T00:48:08.682Z,76.56
2019-05-26T00:49:08.666Z,76.46
2019-05-26T00:50:08.679Z,76.46
2019-05-26T00:51:08.645Z,76.43
2019-05-26T00:52:08.638Z,76.67
2019-05-26T00:53:08.624Z,76.67
2019-05-26T00:54:08.616Z,76.56
2019-05-26T00:55:08.631Z,76.56
2019-05-26T00:56:08.591Z,76.67
2019-05-26T00:57:08.584Z,76.26
2019-05-26T00:58:08.570Z,76.46
2019-05-26T00:59:08.560Z,76.56
2019-05-26T01:00:08.576Z,76.77
2019-05-26T01:01:08.538Z,76.87
2019-05-26T01:02:08.548Z,76.90
2019-05-26T01:03:08.519Z,76.77
2019-05-26T01:04:08.505Z,77.08
2019-05-26T01:05:08.516Z,76.87
2019-05-26T01:06:08.484Z,77.08
2019-05-26T01:07:08.472Z,77.08
2019-05-26T01:08:08.458Z,77.08
2019-05-26T01:09:08.450Z,77.42
2019-05-26T01:10:08.463Z,77.52
2019-05-26T01:11:08.425Z,77.31
2019-05-26T01:12:08.416Z,77.72
2019-05-26T01:13:08.402Z,77.72
2019-05-26T01:14:08.392Z,77.62
2019-05-26T01:15:08.427Z,77.83
2019-05-26T01:16:08.373Z,77.93
2019-05-26T01:17:08.363Z,77.93
2019-05-26T01:18:08.372Z,78.03
2019-05-26T01:19:08.339Z,78.03
2019-05-26T01:20:08.353Z,78.13
2019-05-26T01:21:08.317Z,78.17
2019-05-26T01:22:08.306Z,78.17
2019-05-26T01:23:08.294Z,78.03
2019-05-26T01:24:08.284Z,78.27
2019-05-26T01:25:08.305Z,78.27
2019-05-26T01:26:08.260Z,78.34
2019-05-26T01:27:08.256Z,78.27
2019-05-26T01:28:08.255Z,78.07
2019-05-26T01:29:08.230Z,78.38
2019-05-26T01:30:08.257Z,78.48
2019-05-26T01:31:08.207Z,78.58
2019-05-26T01:32:08.196Z,78.58
2019-05-26T01:33:08.186Z,78.78
2019-05-26T01:34:08.175Z,78.78
2019-05-26T01:35:08.189Z,78.88
2019-05-26T01:36:08.154Z,78.78
2019-05-26T01:37:08.144Z,78.99
2019-05-26T01:38:22.578Z,78.88
2019-05-26T01:39:09.119Z,79.09
2019-05-26T01:40:08.133Z,79.74
2019-05-26T01:41:08.120Z,79.39
2019-05-26T01:42:08.361Z,79.29
2019-05-26T01:43:08.076Z,79.23
2019-05-26T01:44:08.065Z,79.09
2019-05-26T01:45:08.114Z,79.19
2019-05-26T01:46:08.049Z,79.09
2019-05-26T01:47:08.033Z,79.23
2019-05-26T01:48:08.024Z,79.23
2019-05-26T01:49:08.011Z,79.33
2019-05-26T01:50:08.028Z,79.33
2019-05-26T01:51:08.009Z,79.33
2019-05-26T01:52:07.980Z,79.64
2019-05-26T01:53:07.966Z,79.74
2019-05-26T01:54:07.957Z,79.84
2019-05-26T01:55:07.972Z,79.53
2019-05-26T01:56:07.935Z,79.94
2019-05-26T01:57:07.922Z,79.74
2019-05-26T01:58:07.914Z,80.05
2019-05-26T01:59:07.904Z,80.76
2019-05-26T02:00:07.919Z,80.66
2019-05-26T02:01:07.882Z,80.56
2019-05-26T02:02:07.871Z,80.66
2019-05-26T02:03:07.860Z,80.80
2019-05-26T02:04:07.856Z,80.60
2019-05-26T02:05:07.863Z,81.01
2019-05-26T02:06:07.831Z,81.01
2019-05-26T02:07:07.816Z,80.80
2019-05-26T02:08:11.658Z,80.90
2019-05-26T02:09:07.792Z,80.60
2019-05-26T02:10:07.808Z,81.10
2019-05-26T02:11:07.770Z,80.60
2019-05-26T02:12:07.764Z,81.56
2019-05-26T02:13:07.750Z,81.51
2019-05-26T02:14:07.758Z,81.56
2019-05-26T02:15:07.753Z,81.86
2019-05-26T02:16:07.717Z,81.76
2019-05-26T02:17:07.706Z,81.76
2019-05-26T02:18:07.694Z,82.07
2019-05-26T02:19:07.682Z,81.86
2019-05-26T02:20:07.699Z,82.27
2019-05-26T02:21:07.762Z,82.17
2019-05-26T02:22:07.648Z,82.17
2019-05-26T02:23:07.639Z,82.17
2019-05-26T02:24:07.628Z,81.96
2019-05-26T02:25:07.639Z,82.21
2019-05-26T02:26:07.603Z,81.59
2019-05-26T02:27:07.591Z,81.79
2019-05-26T02:28:07.582Z,81.79
2019-05-26T02:29:07.643Z,81.79
2019-05-26T02:30:07.590Z,82.41
2019-05-26T02:31:07.559Z,82.10
2019-05-26T02:32:07.535Z,82.10
2019-05-26T02:33:07.525Z,82.51
2019-05-26T02:34:07.515Z,82.62
2019-05-26T02:35:07.534Z,82.21
2019-05-26T02:36:07.493Z,82.21
2019-05-26T02:37:07.488Z,82.82
2019-05-26T02:38:07.471Z,82.82
2019-05-26T02:39:07.460Z,82.71
2019-05-26T02:40:07.475Z,82.65
2019-05-26T02:41:07.440Z,83.03
2019-05-26T02:42:07.426Z,82.82
2019-05-26T02:43:07.420Z,82.65
2019-05-26T02:44:07.403Z,83.17
2019-05-26T02:45:07.416Z,83.58
2019-05-26T02:46:07.397Z,84.09
2019-05-26T02:47:07.368Z,82.96
2019-05-26T02:48:07.360Z,83.78
2019-05-26T02:49:07.349Z,83.68
2019-05-26T02:50:07.371Z,83.72
2019-05-26T02:51:07.326Z,84.23
2019-05-26T02:52:07.327Z,84.23
2019-05-26T02:53:07.302Z,84.03
2019-05-26T02:54:07.302Z,84.33
2019-05-26T02:55:07.307Z,84.33
2019-05-26T02:56:07.271Z,84.23
2019-05-26T02:57:07.259Z,84.53
2019-05-26T02:58:07.256Z,84.33
2019-05-26T02:59:07.241Z,84.37
2019-05-26T03:00:07.263Z,84.37
2019-05-26T03:01:07.214Z,84.47
2019-05-26T03:02:07.202Z,84.58
2019-05-26T03:03:07.194Z,84.88
2019-05-26T03:04:07.183Z,84.99
2019-05-26T03:05:07.197Z,84.68
2019-05-26T03:06:07.159Z,84.99
2019-05-26T03:07:07.149Z,84.82
2019-05-26T03:08:07.141Z,84.88
2019-05-26T03:09:22.128Z,84.88
2019-05-26T03:10:08.145Z,84.47
2019-05-26T03:11:07.107Z,85.09
2019-05-26T03:12:07.098Z,84.88
2019-05-26T03:13:07.089Z,84.68
2019-05-26T03:14:07.078Z,84.68
2019-05-26T03:15:07.090Z,84.68
2019-05-26T03:16:07.058Z,84.58
2019-05-26T03:17:07.043Z,84.27
2019-05-26T03:18:07.055Z,84.47
2019-05-26T03:19:07.022Z,84.37
2019-05-26T03:20:07.041Z,84.47
2019-05-26T03:21:07.000Z,84.31
2019-05-26T03:22:06.989Z,84.58
2019-05-26T03:23:06.978Z,83.96
2019-05-26T03:24:06.969Z,84.37
2019-05-26T03:25:06.982Z,84.27
2019-05-26T03:26:06.978Z,84.03
2019-05-26T03:27:06.935Z,84.17
2019-05-26T03:28:06.925Z,83.55
2019-05-26T03:29:06.915Z,83.65
2019-05-26T03:30:06.928Z,84.06
2019-05-26T03:31:06.892Z,83.86
2019-05-26T03:32:06.882Z,84.06
2019-05-26T03:33:06.891Z,82.93
2019-05-26T03:34:06.860Z,84.17
2019-05-26T03:35:06.878Z,83.96
2019-05-26T03:36:10.349Z,83.96
2019-05-26T03:37:06.825Z,83.86
2019-05-26T03:38:06.825Z,84.06
2019-05-26T03:39:06.804Z,83.86
2019-05-26T03:40:06.827Z,84.06
2019-05-26T03:41:06.783Z,83.86
2019-05-26T03:42:06.776Z,84.17
2019-05-26T03:43:06.762Z,84.17
2019-05-26T03:44:06.754Z,83.96
2019-05-26T03:45:06.764Z,84.17
2019-05-26T03:46:06.731Z,84.06
2019-05-26T03:47:06.719Z,84.17
2019-05-26T03:48:06.706Z,84.10
2019-05-26T03:49:06.702Z,84.00
2019-05-26T03:50:06.722Z,83.18
2019-05-26T03:51:06.683Z,83.80
2019-05-26T03:52:06.664Z,83.34
2019-05-26T03:53:06.802Z,83.76
2019-05-26T03:54:06.643Z,83.55
2019-05-26T03:55:06.657Z,83.65
2019-05-26T03:56:06.626Z,84.06
2019-05-26T03:57:06.609Z,83.96
2019-05-26T03:58:06.599Z,84.17
2019-05-26T03:59:06.607Z,84.06
2019-05-26T04:00:06.619Z,83.86
2019-05-26T04:01:06.569Z,83.86
2019-05-26T04:02:06.557Z,82.83
2019-05-26T04:03:06.545Z,84.17
2019-05-26T04:04:06.536Z,84.06
2019-05-26T04:05:06.550Z,83.41
2019-05-26T04:06:06.512Z,84.17
2019-05-26T04:07:06.504Z,83.55
2019-05-26T04:08:06.494Z,83.14
2019-05-26T04:09:06.498Z,83.45
2019-05-26T04:10:06.659Z,84.27
2019-05-26T04:11:06.462Z,84.27
2019-05-26T04:12:06.449Z,83.04
2019-05-26T04:13:06.436Z,83.86
2019-05-26T04:14:06.441Z,83.20
2019-05-26T04:15:06.446Z,83.86
2019-05-26T04:16:06.415Z,83.92
2019-05-26T04:17:06.394Z,84.03
2019-05-26T04:18:06.389Z,83.61
2019-05-26T04:19:06.375Z,83.20
2019-05-26T04:20:06.409Z,83.00
2019-05-26T04:21:06.367Z,83.10
2019-05-26T04:22:06.348Z,83.00
2019-05-26T04:23:06.331Z,83.10
2019-05-26T04:24:06.320Z,83.20
2019-05-26T04:25:06.363Z,83.20
2019-05-26T04:26:06.301Z,83.17
2019-05-26T04:27:06.295Z,82.96
2019-05-26T04:28:06.296Z,83.17
2019-05-26T04:29:06.275Z,83.06
2019-05-26T04:30:06.284Z,83.06
2019-05-26T04:31:06.250Z,83.17
2019-05-26T04:32:06.284Z,83.17
2019-05-26T04:33:06.222Z,82.96
2019-05-26T04:34:06.212Z,83.17
2019-05-26T04:35:06.250Z,83.03
2019-05-26T04:36:06.203Z,82.65
2019-05-26T04:37:06.197Z,82.76
2019-05-26T04:38:06.168Z,82.82
2019-05-26T04:39:06.159Z,82.86
2019-05-26T04:40:25.019Z,82.76
2019-05-26T04:41:07.135Z,82.92
2019-05-26T04:42:06.132Z,82.86
2019-05-26T04:43:06.116Z,82.96
2019-05-26T04:44:06.116Z,83.13
2019-05-26T04:45:06.244Z,83.17
2019-05-26T04:46:06.081Z,83.13
2019-05-26T04:47:06.071Z,82.92
2019-05-26T04:48:06.082Z,82.71
2019-05-26T04:49:06.049Z,82.62
2019-05-26T04:50:06.062Z,82.71
2019-05-26T04:51:06.029Z,83.13
2019-05-26T04:52:06.017Z,82.92
2019-05-26T04:53:07.391Z,83.23
2019-05-26T04:54:06.056Z,82.71
2019-05-26T04:55:06.060Z,82.62
2019-05-26T04:56:05.988Z,82.71
2019-05-26T04:57:05.983Z,82.71
2019-05-26T04:58:05.945Z,82.82
2019-05-26T04:59:05.946Z,82.78
2019-05-26T05:00:05.955Z,82.68
2019-05-26T05:01:05.917Z,82.68
2019-05-26T05:02:05.937Z,82.57
2019-05-26T05:03:05.910Z,82.27
2019-05-26T05:04:05.891Z,82.34
2019-05-26T05:05:05.920Z,81.86
2019-05-26T05:06:05.866Z,81.82
2019-05-26T05:07:05.848Z,81.82
2019-05-26T05:08:05.835Z,81.62
2019-05-26T05:09:05.826Z,81.82
2019-05-26T05:10:05.840Z,81.72
2019-05-26T05:11:05.811Z,81.68
2019-05-26T05:12:05.792Z,81.79
2019-05-26T05:13:05.785Z,82.09
2019-05-26T05:14:05.769Z,81.48
2019-05-26T05:15:05.782Z,81.54
2019-05-26T05:16:05.761Z,81.03
2019-05-26T05:17:05.741Z,80.83
2019-05-26T05:18:05.744Z,80.83
2019-05-26T05:19:05.712Z,81.03
2019-05-26T05:20:05.727Z,80.83
2019-05-26T05:21:05.716Z,80.42
2019-05-26T05:22:05.685Z,80.73
2019-05-26T05:23:05.674Z,80.52
2019-05-26T05:24:05.672Z,80.42
2019-05-26T05:25:13.902Z,80.42
2019-05-26T05:26:06.673Z,80.28
2019-05-26T05:27:05.628Z,79.97
2019-05-26T05:28:05.623Z,79.87
2019-05-26T05:29:05.605Z,79.02
2019-05-26T05:30:05.617Z,78.71
2019-05-26T05:31:05.584Z,78.91
2019-05-26T05:32:05.576Z,78.71
2019-05-26T05:33:05.572Z,78.16
2019-05-26T05:34:05.550Z,77.96
2019-05-26T05:35:05.565Z,77.75
2019-05-26T05:36:05.534Z,78.06
2019-05-26T05:37:05.518Z,77.82
2019-05-26T05:38:05.511Z,77.65
2019-05-26T05:39:05.495Z,77.62
2019-05-26T05:40:05.509Z,77.41
2019-05-26T05:41:05.474Z,77.21
2019-05-26T05:42:12.739Z,76.80
2019-05-26T05:43:05.458Z,77.00
2019-05-26T05:44:05.450Z,76.90
2019-05-26T05:45:05.455Z,76.59
2019-05-26T05:46:05.430Z,76.05
2019-05-26T05:47:05.408Z,75.85
2019-05-26T05:48:05.397Z,75.85
2019-05-26T05:49:05.388Z,76.25
2019-05-26T05:50:05.402Z,75.85
2019-05-26T05:51:05.363Z,75.54
2019-05-26T05:52:05.349Z,75.54
2019-05-26T05:53:05.344Z,75.85
2019-05-26T05:54:05.369Z,75.60
2019-05-26T05:55:05.345Z,75.54
2019-05-26T05:56:05.345Z,75.40
2019-05-26T05:57:05.296Z,75.92
2019-05-26T05:58:05.287Z,75.40
2019-05-26T05:59:05.274Z,75.16
2019-05-26T06:00:05.292Z,75.10
2019-05-26T06:01:05.253Z,74.76
2019-05-26T06:02:05.244Z,74.76
2019-05-26T06:03:05.231Z,74.65
2019-05-26T06:04:05.218Z,75.02
2019-05-26T06:05:05.234Z,74.21
2019-05-26T06:06:05.209Z,73.30
2019-05-26T06:07:05.190Z,73.57
2019-05-26T06:08:05.176Z,73.06
2019-05-26T06:09:05.164Z,73.06
2019-05-26T06:10:05.180Z,73.26
2019-05-26T06:11:15.890Z,72.86
2019-05-26T06:12:06.131Z,72.65
2019-05-26T06:13:05.121Z,72.25
2019-05-26T06:14:05.112Z,71.73
2019-05-26T06:15:05.124Z,72.04
2019-05-26T06:16:05.088Z,72.34
2019-05-26T06:17:05.077Z,72.62
2019-05-26T06:18:05.065Z,72.21
2019-05-26T06:19:05.057Z,71.70
2019-05-26T06:20:05.074Z,72.11
2019-05-26T06:21:05.034Z,72.01
2019-05-26T06:22:05.039Z,72.25
2019-05-26T06:23:05.015Z,71.91
2019-05-26T06:24:05.001Z,72.01
2019-05-26T06:25:05.017Z,72.21
2019-05-26T06:26:04.976Z,71.50
2019-05-26T06:27:04.966Z,71.97
2019-05-26T06:28:04.957Z,71.57
2019-05-26T06:29:04.943Z,71.36
2019-05-26T06:30:04.959Z,71.47
2019-05-26T06:31:04.947Z,70.96
2019-05-26T06:32:05.125Z,71.26
2019-05-26T06:33:04.899Z,70.86
2019-05-26T06:34:04.922Z,71.06
2019-05-26T06:35:04.901Z,70.82
2019-05-26T06:36:04.874Z,70.11
2019-05-26T06:37:04.853Z,70.31
2019-05-26T06:38:04.843Z,70.52
2019-05-26T06:39:04.832Z,69.60
2019-05-26T06:40:04.846Z,69.50
2019-05-26T06:41:04.812Z,69.40
2019-05-26T06:42:04.798Z,69.20
2019-05-26T06:43:04.786Z,68.99
2019-05-26T06:44:04.775Z,68.89
2019-05-26T06:45:04.801Z,68.66
2019-05-26T06:46:04.754Z,68.55
2019-05-26T06:47:04.745Z,68.42
2019-05-26T06:48:04.741Z,68.42
2019-05-26T06:49:04.721Z,68.49
2019-05-26T06:50:04.736Z,67.61
2019-05-26T06:51:04.702Z,67.58
2019-05-26T06:52:04.700Z,67.38
2019-05-26T06:53:04.684Z,66.56
2019-05-26T06:54:04.667Z,66.13
2019-05-26T06:55:04.683Z,66.13
2019-05-26T06:56:04.646Z,66.02
2019-05-26T06:57:04.712Z,66.09
2019-05-26T06:58:04.623Z,65.69
2019-05-26T06:59:04.613Z,65.79
2019-05-26T07:00:04.634Z,64.78
2019-05-26T07:01:04.594Z,65.59
2019-05-26T07:02:04.598Z,65.62
2019-05-26T07:03:04.568Z,65.08
2019-05-26T07:04:04.558Z,64.88
2019-05-26T07:05:04.576Z,64.17
2019-05-26T07:06:04.536Z,65.08
2019-05-26T07:07:04.526Z,64.37
2019-05-26T07:08:04.514Z,64.24
2019-05-26T07:09:04.502Z,64.17
2019-05-26T07:10:04.521Z,63.93
2019-05-26T07:11:04.481Z,63.83
2019-05-26T07:12:04.469Z,62.99
2019-05-26T07:13:04.458Z,63.93
2019-05-26T07:14:04.447Z,62.89
2019-05-26T07:15:04.460Z,63.20
2019-05-26T07:16:04.427Z,62.89
2019-05-26T07:17:04.415Z,62.89
2019-05-26T07:18:04.455Z,62.59
2019-05-26T07:19:04.392Z,62.89
2019-05-26T07:20:04.406Z,62.29
2019-05-26T07:21:04.372Z,62.29
2019-05-26T07:22:04.365Z,62.46
2019-05-26T07:23:06.134Z,62.49
2019-05-26T07:24:04.355Z,62.35
2019-05-26T07:25:04.366Z,61.95
2019-05-26T07:26:04.454Z,62.26
2019-05-26T07:27:04.318Z,62.23
2019-05-26T07:28:04.293Z,62.12
2019-05-26T07:29:04.283Z,61.72
2019-05-26T07:30:04.298Z,61.29
2019-05-26T07:31:04.275Z,61.49
2019-05-26T07:32:04.249Z,61.69
2019-05-26T07:33:04.241Z,60.48
2019-05-26T07:34:04.228Z,60.68
2019-05-26T07:35:04.243Z,60.88
2019-05-26T07:36:04.205Z,60.25
2019-05-26T07:37:04.220Z,60.65
2019-05-26T07:38:04.187Z,59.44
2019-05-26T07:39:04.172Z,60.22
2019-05-26T07:40:04.191Z,59.81
2019-05-26T07:41:04.149Z,60.12
2019-05-26T07:42:10.703Z,59.58
2019-05-26T07:43:05.135Z,59.21
2019-05-26T07:44:04.125Z,58.37
2019-05-26T07:45:25.142Z,58.60
2019-05-26T07:47:12.014Z,59.28
2019-05-26T07:48:12.000Z,58.67
2019-05-26T07:49:12.016Z,58.70
2019-05-26T07:50:12.074Z,58.87
2019-05-26T07:51:11.961Z,58.58
2019-05-26T07:52:11.949Z,59.18
2019-05-26T07:53:11.939Z,58.78
2019-05-26T07:54:24.510Z,58.37
2019-05-26T07:55:12.941Z,58.47
2019-05-26T07:56:11.910Z,57.36
2019-05-26T07:57:11.895Z,57.46
2019-05-26T07:58:11.884Z,58.27
2019-05-26T07:59:11.872Z,58.58
2019-05-26T08:00:11.903Z,57.74
2019-05-26T08:01:11.853Z,58.65
2019-05-26T08:02:11.843Z,58.14
2019-05-26T08:03:11.830Z,58.14
2019-05-26T08:04:11.817Z,58.54
2019-05-26T08:05:11.832Z,58.75
2019-05-26T08:06:11.876Z,58.62
2019-05-26T08:07:11.785Z,57.21
2019-05-26T08:08:13.368Z,56.90
2019-05-26T08:09:11.767Z,56.90
2019-05-26T08:10:11.782Z,57.51
2019-05-26T08:11:11.746Z,57.89
2019-05-26T08:12:24.861Z,57.08
2019-05-26T08:13:12.717Z,56.75
2019-05-26T08:14:11.711Z,55.74
2019-05-26T08:15:11.722Z,56.15
2019-05-26T08:16:11.686Z,55.84
2019-05-26T08:17:11.678Z,55.51
2019-05-26T08:18:11.666Z,55.51
2019-05-26T08:19:11.654Z,55.79
2019-05-26T08:20:11.699Z,55.89
2019-05-26T08:21:11.688Z,55.11
2019-05-26T08:22:11.625Z,55.31
2019-05-26T08:23:11.614Z,55.71
2019-05-26T08:24:11.607Z,55.41
2019-05-26T08:25:11.616Z,55.82
2019-05-26T08:26:11.577Z,55.62
2019-05-26T08:27:11.569Z,55.71
2019-05-26T08:28:11.580Z,55.89
2019-05-26T08:29:11.548Z,55.49
2019-05-26T08:30:11.566Z,55.39
2019-05-26T08:31:13.430Z,55.99
2019-05-26T08:32:11.516Z,54.88
2019-05-26T08:33:11.532Z,54.68
2019-05-26T08:34:11.492Z,55.19
2019-05-26T08:35:11.508Z,54.79
2019-05-26T08:36:11.471Z,55.29
2019-05-26T08:37:11.463Z,55.49
2019-05-26T08:38:11.449Z,55.49
2019-05-26T08:39:11.437Z,55.26
2019-05-26T08:40:11.464Z,55.66
2019-05-26T08:41:11.415Z,54.55
2019-05-26T08:42:24.617Z,55.29
2019-05-26T08:43:12.394Z,55.08
2019-05-26T08:44:11.383Z,55.59
2019-05-26T08:45:11.396Z,55.87
2019-05-26T08:46:11.360Z,54.66
2019-05-26T08:47:11.353Z,54.35
2019-05-26T08:48:11.343Z,55.39
2019-05-26T08:49:11.327Z,54.68
2019-05-26T08:50:11.343Z,53.75
2019-05-26T08:51:11.305Z,53.45
2019-05-26T08:52:11.296Z,53.07
2019-05-26T08:53:11.282Z,53.67
2019-05-26T08:54:11.274Z,54.28
2019-05-26T08:55:11.285Z,53.85
2019-05-26T08:56:11.254Z,54.25
2019-05-26T08:57:11.238Z,53.34
2019-05-26T08:58:11.229Z,53.55
2019-05-26T08:59:11.218Z,53.14
2019-05-26T09:00:11.230Z,53.25
2019-05-26T09:01:11.194Z,52.82
2019-05-26T09:02:11.181Z,52.62
2019-05-26T09:03:11.169Z,52.22
2019-05-26T09:04:11.157Z,51.64
2019-05-26T09:05:11.173Z,52.22
2019-05-26T09:06:11.137Z,52.22
2019-05-26T09:07:11.125Z,52.22
2019-05-26T09:08:11.116Z,52.42
2019-05-26T09:09:11.103Z,52.11
2019-05-26T09:10:11.123Z,51.51
2019-05-26T09:11:11.081Z,51.61
2019-05-26T09:12:11.072Z,51.91
2019-05-26T09:13:11.062Z,51.71
2019-05-26T09:14:11.065Z,51.91
2019-05-26T09:15:11.070Z,51.59
2019-05-26T09:16:11.030Z,51.89
2019-05-26T09:17:11.017Z,50.71
2019-05-26T09:18:11.004Z,51.89
2019-05-26T09:19:10.993Z,51.39
2019-05-26T09:20:11.960Z,51.29
2019-05-26T09:21:10.973Z,51.09
2019-05-26T09:22:10.960Z,49.55
2019-05-26T09:23:10.950Z,49.95
2019-05-26T09:24:10.940Z,49.76
2019-05-26T09:25:10.953Z,49.65
2019-05-26T09:26:10.922Z,49.65
2019-05-26T09:27:10.907Z,49.45
2019-05-26T09:28:10.894Z,49.53
2019-05-26T09:29:10.886Z,48.83
2019-05-26T09:30:10.900Z,50.01
2019-05-26T09:31:10.864Z,49.60
2019-05-26T09:32:10.853Z,49.18
2019-05-26T09:33:10.844Z,48.70
2019-05-26T09:34:10.833Z,48.58
2019-05-26T09:35:10.847Z,48.88
2019-05-26T09:36:10.811Z,48.08
2019-05-26T09:37:10.805Z,48.30
2019-05-26T09:38:10.791Z,47.50
2019-05-26T09:39:10.780Z,48.40
2019-05-26T09:40:10.796Z,48.20
2019-05-26T09:41:10.758Z,48.90
2019-05-26T09:42:10.748Z,49.40
2019-05-26T09:43:16.137Z,48.80
2019-05-26T09:44:11.724Z,48.10
2019-05-26T09:45:10.739Z,48.08
2019-05-26T09:46:10.702Z,47.77
2019-05-26T09:47:10.695Z,48.18
2019-05-26T09:48:10.680Z,48.30
2019-05-26T09:49:10.679Z,48.00
2019-05-26T09:50:10.692Z,47.70
2019-05-26T09:51:10.649Z,48.08
2019-05-26T09:52:10.638Z,48.28
2019-05-26T09:53:10.626Z,47.38
2019-05-26T09:54:12.609Z,48.48
2019-05-26T09:55:10.633Z,47.97
2019-05-26T09:56:10.603Z,47.85
2019-05-26T09:57:10.584Z,48.05
2019-05-26T09:58:10.571Z,48.25
2019-05-26T09:59:10.561Z,48.05
2019-05-26T10:00:10.576Z,47.45
2019-05-26T10:01:10.538Z,47.83
2019-05-26T10:02:10.530Z,47.53
2019-05-26T10:03:10.519Z,48.23
2019-05-26T10:04:10.617Z,47.43
2019-05-26T10:05:10.521Z,48.03
2019-05-26T10:06:10.483Z,47.71
2019-05-26T10:07:14.879Z,46.03
2019-05-26T10:08:11.463Z,46.12
2019-05-26T10:09:10.450Z,47.13
2019-05-26T10:10:10.468Z,47.00
2019-05-26T10:11:10.428Z,47.11
2019-05-26T10:12:10.424Z,46.30
2019-05-26T10:13:10.429Z,46.20
2019-05-26T10:14:10.426Z,47.20
2019-05-26T10:15:10.409Z,47.11
2019-05-26T10:16:10.391Z,47.08
2019-05-26T10:17:10.360Z,46.28
2019-05-26T10:18:10.353Z,46.98
2019-05-26T10:19:10.340Z,47.28
2019-05-26T10:20:10.355Z,46.66
2019-05-26T10:21:10.324Z,47.38
2019-05-26T10:22:10.321Z,46.58
2019-05-26T10:23:10.297Z,47.31
2019-05-26T10:24:10.288Z,47.50
2019-05-26T10:25:10.302Z,47.13
2019-05-26T10:26:10.267Z,47.41
2019-05-26T10:27:10.368Z,47.33
2019-05-26T10:28:10.244Z,47.61
2019-05-26T10:29:10.240Z,47.11
2019-05-26T10:30:10.404Z,47.38
2019-05-26T10:31:10.218Z,45.78
2019-05-26T10:32:10.206Z,45.48
2019-05-26T10:33:10.220Z,45.38
2019-05-26T10:34:13.602Z,46.18
2019-05-26T10:35:10.195Z,45.88
2019-05-26T10:36:10.163Z,45.66
2019-05-26T10:37:10.149Z,45.66
2019-05-26T10:38:10.138Z,46.06
2019-05-26T10:39:10.128Z,45.36
2019-05-26T10:40:10.143Z,45.56
2019-05-26T10:41:10.109Z,45.36
2019-05-26T10:42:10.095Z,45.56
2019-05-26T10:43:10.094Z,45.56
2019-05-26T10:44:10.074Z,45.96
2019-05-26T10:45:10.091Z,45.48
2019-05-26T10:46:10.056Z,46.06
2019-05-26T10:47:10.061Z,45.96
2019-05-26T10:48:10.036Z,46.46
2019-05-26T10:49:10.026Z,46.56
2019-05-26T10:50:10.151Z,46.26
2019-05-26T10:51:10.016Z,46.46
2019-05-26T10:52:10.009Z,46.24
2019-05-26T10:53:09.979Z,45.43
2019-05-26T10:54:09.969Z,45.21
2019-05-26T10:55:09.981Z,44.82
2019-05-26T10:56:09.944Z,44.21
2019-05-26T10:57:09.932Z,44.51
2019-05-26T10:58:09.921Z,44.01
2019-05-26T10:59:09.911Z,43.41
2019-05-26T11:00:09.926Z,44.39
2019-05-26T11:01:09.892Z,43.91
2019-05-26T11:02:09.878Z,43.90
2019-05-26T11:03:09.873Z,43.49
2019-05-26T11:04:09.855Z,42.99
2019-05-26T11:05:09.870Z,43.49
2019-05-26T11:06:09.833Z,44.20
2019-05-26T11:07:09.823Z,43.77
2019-05-26T11:08:09.812Z,43.45
2019-05-26T11:09:09.802Z,43.45
2019-05-26T11:10:09.816Z,43.65
2019-05-26T11:11:09.783Z,42.46
2019-05-26T11:12:09.773Z,43.18
2019-05-26T11:13:09.762Z,42.38
2019-05-26T11:14:09.748Z,43.49
2019-05-26T11:15:09.769Z,43.09
2019-05-26T11:16:09.727Z,42.99
2019-05-26T11:17:09.718Z,43.90
2019-05-26T11:18:09.707Z,43.37
2019-05-26T11:19:09.696Z,43.25
2019-05-26T11:20:09.709Z,42.24
2019-05-26T11:21:12.325Z,41.83
2019-05-26T11:22:09.665Z,42.41
2019-05-26T11:23:09.654Z,42.11
2019-05-26T11:24:09.642Z,42.41
2019-05-26T11:25:09.657Z,42.21
2019-05-26T11:26:09.627Z,42.21
2019-05-26T11:27:12.458Z,42.03
2019-05-26T11:28:09.597Z,42.65
2019-05-26T11:29:09.591Z,43.05
2019-05-26T11:30:09.601Z,43.18
2019-05-26T11:31:09.565Z,43.35
2019-05-26T11:32:09.567Z,42.65
2019-05-26T11:33:09.541Z,43.67
2019-05-26T11:34:09.536Z,43.27
2019-05-26T11:35:09.545Z,43.27
2019-05-26T11:36:09.556Z,43.07
2019-05-26T11:37:09.502Z,43.37
2019-05-26T11:38:09.498Z,43.87
2019-05-26T11:39:09.477Z,42.35
2019-05-26T11:40:09.490Z,41.93
2019-05-26T11:41:09.478Z,42.02
2019-05-26T11:42:15.813Z,40.46
2019-05-26T11:43:16.860Z,39.96
2019-05-26T11:44:18.065Z,40.26
2019-05-26T11:45:10.436Z,39.62
2019-05-26T11:46:09.399Z,39.64
2019-05-26T11:47:09.392Z,39.62
2019-05-26T11:48:09.377Z,40.24
2019-05-26T11:49:09.367Z,39.56
2019-05-26T11:50:09.383Z,39.74
2019-05-26T11:51:09.349Z,39.84
2019-05-26T11:52:09.340Z,39.40
2019-05-26T11:53:09.328Z,38.39
2019-05-26T11:54:09.314Z,39.23
2019-05-26T11:55:09.328Z,39.12
2019-05-26T11:56:09.292Z,39.14
2019-05-26T11:57:09.281Z,39.84
2019-05-26T11:58:09.276Z,40.34
2019-05-26T11:59:09.259Z,39.96
2019-05-26T12:00:10.370Z,40.36
2019-05-26T12:01:09.238Z,41.08
2019-05-26T12:02:09.234Z,41.09
2019-05-26T12:03:09.218Z,41.60
2019-05-26T12:04:09.205Z,41.80
2019-05-26T12:05:09.223Z,41.39
2019-05-26T12:06:09.188Z,41.82
2019-05-26T12:07:09.173Z,41.50
2019-05-26T12:08:09.170Z,41.50
2019-05-26T12:09:09.154Z,41.89
2019-05-26T12:10:13.375Z,41.17
2019-05-26T12:11:09.130Z,41.25
2019-05-26T12:12:09.121Z,40.44
2019-05-26T12:13:09.109Z,39.92
2019-05-26T12:14:09.104Z,39.64
2019-05-26T12:15:09.112Z,39.44
2019-05-26T12:16:09.074Z,39.25
2019-05-26T12:17:09.064Z,39.56
2019-05-26T12:18:09.053Z,39.56
2019-05-26T12:19:09.061Z,40.46
2019-05-26T12:20:09.063Z,40.26
2019-05-26T12:21:09.020Z,40.26
2019-05-26T12:22:09.010Z,40.36
2019-05-26T12:23:09.018Z,40.46
2019-05-26T12:24:08.987Z,40.46
2019-05-26T12:25:09.005Z,40.08
2019-05-26T12:26:08.971Z,40.28
2019-05-26T12:27:08.972Z,40.48
2019-05-26T12:28:08.947Z,40.58
2019-05-26T12:29:08.934Z,40.59
2019-05-26T12:30:08.949Z,40.59
2019-05-26T12:31:08.914Z,40.00
2019-05-26T12:32:08.902Z,41.09
2019-05-26T12:33:08.893Z,40.50
2019-05-26T12:34:08.880Z,41.00
2019-05-26T12:35:08.905Z,41.22
2019-05-26T12:36:08.862Z,41.82
2019-05-26T12:37:08.851Z,41.52
2019-05-26T12:38:08.838Z,41.71
2019-05-26T12:39:08.826Z,41.82
2019-05-26T12:40:08.877Z,41.53
2019-05-26T12:41:08.807Z,41.41
2019-05-26T12:42:08.832Z,41.82
2019-05-26T12:43:08.787Z,41.80
2019-05-26T12:44:10.942Z,41.71
2019-05-26T12:45:08.802Z,41.82
2019-05-26T12:46:08.754Z,41.89
2019-05-26T12:47:08.742Z,40.58
2019-05-26T12:48:08.731Z,40.66
2019-05-26T12:49:08.722Z,40.94
2019-05-26T12:50:08.743Z,39.74
2019-05-26T12:51:08.702Z,39.53
2019-05-26T12:52:08.691Z,39.61
2019-05-26T12:53:08.679Z,38.63